HKKI

Kisumu Airport

Kisumu, Kenya
TAF HKKI 171100Z 1712/1812 24010KT 9999 FEW025CB SCT080 BECMG 1720/1723 06005KT FEW019CB SCT080 BECMG 1808/1811 22010KT FEW024CB SCT080
Issued Valid From Valid To
Dec-17 @ 11:00 UTC
(2 hours ago)
Dec-17 @ 12:00 UTC
(46 minutes ago)
Dec-18 @ 12:00 UTC
(in 23 hours)
Dec-17 @ 12:00 to Dec-17 @ 20:00
TAF HKKI 171100Z 1712/1812 24010KT 9999 FEW025CB SCT080
Wind Visibility Clouds
240° at 10 knots 10,000+ meters
  • Few at 2,500' AGL
  • Scattered at 8,000' AGL
Becoming Dec-17 @ 20:00 to Dec-18 @ 08:00
BECMG 1720/1723 06005KT FEW019CB SCT080
Wind Visibility Clouds
60° at 5 knots 10,000+ meters
  • Few at 1,900' AGL
  • Scattered at 8,000' AGL
Becoming Dec-18 @ 08:00 to Dec-18 @ 12:00
BECMG 1808/1811 22010KT FEW024CB SCT080
Wind Visibility Clouds
220° at 10 knots 10,000+ meters
  • Few at 2,400' AGL
  • Scattered at 8,000' AGL
TAF HKKI 171100Z 1712/1812 24010KT 9999 FEW025CB SCT080 BECMG 1720/1723 06005KT FEW019CB SCT080 BECMG 1808/1811 22010KT FEW024CB SCT080
Issued Dec-17 @ 11:00 UTC
(2 hours ago)
Valid From Dec-17 @ 12:00 UTC
(46 minutes ago)
Valid To Dec-18 @ 12:00 UTC
(in 23 hours)
Dec-17 @ 12:00 - Dec-17 @ 20:00
Wind Visibility
240° at 10 knots 10,000+ meters
Clouds
  • Few at 2,500' AGL
  • Scattered at 8,000' AGL
Becoming Dec-17 @ 20:00 - Dec-18 @ 08:00
Wind Visibility
60° at 5 knots 10,000+ meters
Clouds
  • Few at 1,900' AGL
  • Scattered at 8,000' AGL
Becoming Dec-18 @ 08:00 - Dec-18 @ 12:00
Wind Visibility
220° at 10 knots 10,000+ meters
Clouds
  • Few at 2,400' AGL
  • Scattered at 8,000' AGL